Time;durP1;ratioP1;P1;durP2;ratioP2;P2;SDS_P1;SDS_P2;PMS_P1;PMS_P2;Temp;Humidity;BMP_temperature;BMP_pressure;BME280_temperature;BME280_humidity;BME280_pressure;Samples;Min_cycle;Max_cycle;Signal;HPM_P1;HPM_P2
2022/10/10 00:00:48;;;;;;;2.38;0.75;;;8.20;99.90;;;;;;5007033;28;20037;-74
2022/10/10 00:03:15;;;;;;;1.17;0.60;;;8.10;99.90;;;;;;5009790;28;20482;-73
2022/10/10 00:05:42;;;;;;;1.70;0.70;;;8.10;99.90;;;;;;5007374;28;20041;-74
2022/10/10 00:08:08;;;;;;;1.98;0.75;;;8.10;99.90;;;;;;4996933;28;20030;-74
2022/10/10 00:10:35;;;;;;;2.83;0.80;;;8.10;99.90;;;;;;4996836;28;20041;-73
2022/10/10 00:13:01;;;;;;;2.33;0.75;;;8.10;99.90;;;;;;4982870;28;20038;-73
2022/10/10 00:15:28;;;;;;;5.18;2.28;;;8.00;99.90;;;;;;5008509;28;20041;-74
2022/10/10 00:17:54;;;;;;;2.47;0.90;;;8.00;99.90;;;;;;4963575;28;20052;-74
2022/10/10 00:20:21;;;;;;;2.05;0.73;;;8.00;99.90;;;;;;5015165;28;20471;-74
2022/10/10 00:22:47;;;;;;;1.98;0.60;;;8.00;99.90;;;;;;4996624;28;20042;-74
2022/10/10 00:25:13;;;;;;;1.75;0.70;;;8.00;99.90;;;;;;4992105;28;20715;-73
2022/10/10 00:27:40;;;;;;;2.35;0.80;;;7.90;99.90;;;;;;4999138;28;20381;-74
2022/10/10 00:30:08;;;;;;;2.33;0.80;;;7.90;99.90;;;;;;4995907;28;20045;-73
2022/10/10 00:32:35;;;;;;;1.42;0.65;;;7.90;99.90;;;;;;5014113;28;20030;-73
2022/10/10 00:35:02;;;;;;;2.83;1.17;;;7.90;99.90;;;;;;5008748;28;20059;-73
2022/10/10 00:37:29;;;;;;;3.47;1.23;;;7.80;99.90;;;;;;4995433;28;20426;-73
2022/10/10 00:39:55;;;;;;;2.45;0.90;;;7.80;99.90;;;;;;5014218;28;20034;-73
2022/10/10 00:42:21;;;;;;;1.90;0.80;;;7.80;99.90;;;;;;4997736;28;20037;-72
2022/10/10 00:45:29;;;;;;;2.50;0.90;;;7.80;99.90;;;;;;5007126;28;20044;-73
2022/10/10 00:48:13;;;;;;;1.70;0.68;;;7.80;99.90;;;;;;5013067;28;20030;-74
2022/10/10 00:50:44;;;;;;;3.20;0.90;;;7.80;99.90;;;;;;4961913;28;20072;-73
2022/10/10 00:53:13;;;;;;;2.20;0.80;;;7.80;99.90;;;;;;5014196;28;20037;-74
2022/10/10 00:55:39;;;;;;;3.60;0.80;;;7.80;99.90;;;;;;4991796;28;20041;-73
2022/10/10 00:58:06;;;;;;;1.88;0.70;;;7.70;99.90;;;;;;4997244;28;20061;-73
2022/10/10 01:00:33;;;;;;;2.15;0.95;;;7.70;99.90;;;;;;4995596;28;20038;-73
2022/10/10 01:02:59;;;;;;;2.10;0.70;;;7.70;99.90;;;;;;5012386;28;20060;-73
2022/10/10 01:05:26;;;;;;;1.48;0.57;;;7.70;99.90;;;;;;5003058;28;20018;-73
2022/10/10 01:07:52;;;;;;;1.95;0.60;;;7.70;99.90;;;;;;5008254;28;20041;-73
2022/10/10 01:10:21;;;;;;;1.90;0.90;;;7.70;99.90;;;;;;5007895;28;20041;-73
2022/10/10 01:13:15;;;;;;;3.50;1.35;;;7.70;99.90;;;;;;5006592;28;20037;-73
2022/10/10 01:15:59;;;;;;;2.17;0.90;;;7.60;99.90;;;;;;5002399;28;20114;-73
2022/10/10 01:18:52;;;;;;;2.22;0.95;;;7.60;99.90;;;;;;5022689;28;20073;-73
2022/10/10 01:22:01;;;;;;;1.83;0.88;;;7.60;99.90;;;;;;5007919;28;20038;-72
2022/10/10 01:24:58;;;;;;;1.33;0.82;;;7.60;99.90;;;;;;5001879;28;20405;-73
2022/10/10 01:27:50;;;;;;;1.85;0.88;;;7.50;99.90;;;;;;5006844;28;20381;-73
2022/10/10 01:30:23;;;;;;;4.93;0.93;;;7.50;99.90;;;;;;5005889;28;20045;-74
2022/10/10 01:32:58;;;;;;;1.35;0.55;;;7.50;99.90;;;;;;5007453;28;20033;-73
2022/10/10 01:35:46;;;;;;;2.65;0.90;;;7.50;99.90;;;;;;5001798;28;20065;-74
2022/10/10 01:38:37;;;;;;;2.03;0.70;;;7.40;99.90;;;;;;5021987;28;20041;-73
2022/10/10 01:41:21;;;;;;;2.70;1.00;;;7.40;99.90;;;;;;5005920;28;20038;-73
2022/10/10 01:43:52;;;;;;;2.30;0.70;;;7.40;99.90;;;;;;5002807;28;20036;-72
2022/10/10 01:46:18;;;;;;;1.50;0.70;;;7.40;99.90;;;;;;5004384;28;20392;-74
2022/10/10 01:48:51;;;;;;;1.63;0.77;;;7.40;99.90;;;;;;5007183;28;20029;-73
2022/10/10 01:51:49;;;;;;;1.80;0.93;;;7.40;99.90;;;;;;5006619;28;20042;-73
2022/10/10 01:54:34;;;;;;;2.08;0.77;;;7.40;99.90;;;;;;5002651;28;20064;-73
2022/10/10 01:57:54;;;;;;;1.63;0.90;;;7.40;99.90;;;;;;5007769;28;20551;-73
2022/10/10 02:00:20;;;;;;;2.25;0.73;;;7.40;99.90;;;;;;4969852;28;20042;-73
2022/10/10 02:02:52;;;;;;;2.00;0.90;;;7.40;99.90;;;;;;5000833;28;20061;-73
2022/10/10 02:05:31;;;;;;;1.67;0.70;;;7.40;99.90;;;;;;5003284;28;20041;-73
2022/10/10 02:08:08;;;;;;;1.98;0.70;;;7.40;99.90;;;;;;5007035;28;20037;-73
2022/10/10 02:11:08;;;;;;;3.97;1.10;;;7.40;99.90;;;;;;4990037;28;20421;-74
2022/10/10 02:14:03;;;;;;;2.67;0.82;;;7.40;99.90;;;;;;4998826;28;20038;-73
2022/10/10 02:16:35;;;;;;;2.00;0.82;;;7.40;99.90;;;;;;5000905;28;20053;-74
2022/10/10 02:19:06;;;;;;;2.58;1.00;;;7.40;99.90;;;;;;4994598;28;20048;-73
2022/10/10 02:21:33;;;;;;;1.45;0.60;;;7.40;99.90;;;;;;5009957;28;20469;-74
2022/10/10 02:24:05;;;;;;;1.75;0.80;;;7.40;99.90;;;;;;5006987;28;20038;-73
2022/10/10 02:26:33;;;;;;;1.77;0.70;;;7.40;99.90;;;;;;5010706;28;20045;-73
2022/10/10 02:29:14;;;;;;;2.75;0.82;;;7.40;99.90;;;;;;5012732;28;20026;-75
2022/10/10 02:31:46;;;;;;;1.23;0.70;;;7.40;99.90;;;;;;5008800;28;20037;-74
2022/10/10 02:34:17;;;;;;;1.85;0.80;;;7.40;99.90;;;;;;5002913;28;20613;-74
2022/10/10 02:36:53;;;;;;;4.72;1.13;;;7.40;99.90;;;;;;5026730;28;20049;-73
2022/10/10 02:39:23;;;;;;;1.88;1.13;;;7.50;99.90;;;;;;5010485;28;20038;-74
2022/10/10 02:41:51;;;;;;;2.80;0.70;;;7.50;99.90;;;;;;5010946;28;20108;-75
2022/10/10 02:44:18;;;;;;;2.78;0.70;;;7.50;99.90;;;;;;4988017;28;20049;-74
2022/10/10 02:46:44;;;;;;;2.47;0.95;;;7.50;99.90;;;;;;5009662;28;20030;-73
2022/10/10 02:49:11;;;;;;;1.92;0.77;;;7.40;99.90;;;;;;5010491;28;20029;-74
2022/10/10 02:51:38;;;;;;;3.22;1.00;;;7.50;99.90;;;;;;5010175;28;20034;-74
2022/10/10 02:54:05;;;;;;;2.30;0.82;;;7.40;99.90;;;;;;5006214;28;20037;-73
2022/10/10 02:56:32;;;;;;;1.63;0.85;;;7.50;99.90;;;;;;4992653;28;20045;-73
2022/10/10 02:58:58;;;;;;;2.33;0.93;;;7.50;99.90;;;;;;5009953;28;20034;-74
2022/10/10 03:01:24;;;;;;;2.88;0.80;;;7.40;99.90;;;;;;5008996;28;20061;-74
2022/10/10 03:03:50;;;;;;;2.85;0.93;;;7.40;99.90;;;;;;4989525;28;20068;-73
2022/10/10 03:06:16;;;;;;;1.35;0.73;;;7.40;99.90;;;;;;5007987;28;20049;-73
2022/10/10 03:08:43;;;;;;;1.90;0.90;;;7.40;99.90;;;;;;5009354;28;20045;-74
2022/10/10 03:11:09;;;;;;;2.10;1.02;;;7.40;99.90;;;;;;5009878;28;20041;-74
2022/10/10 03:13:35;;;;;;;3.10;0.90;;;7.40;99.90;;;;;;5007385;28;20045;-73
2022/10/10 03:16:03;;;;;;;1.98;0.70;;;7.40;99.90;;;;;;5006273;28;20033;-73
2022/10/10 03:18:29;;;;;;;2.35;1.05;;;7.40;99.90;;;;;;5008226;28;20037;-74
2022/10/10 03:20:55;;;;;;;2.38;0.70;;;7.30;99.90;;;;;;5008379;28;20034;-74
2022/10/10 03:23:23;;;;;;;1.90;0.73;;;7.30;99.90;;;;;;5009710;28;20061;-74
2022/10/10 03:25:49;;;;;;;3.10;1.38;;;7.30;99.90;;;;;;5004944;28;20037;-74
2022/10/10 03:28:16;;;;;;;1.75;0.60;;;7.30;99.90;;;;;;5009494;28;20030;-74
2022/10/10 03:30:42;;;;;;;1.80;0.50;;;7.30;99.90;;;;;;4991620;28;20049;-74
2022/10/10 03:33:09;;;;;;;1.52;0.65;;;7.30;99.90;;;;;;5008329;28;21183;-73
2022/10/10 03:35:35;;;;;;;2.30;0.98;;;7.20;99.90;;;;;;5005845;28;20386;-75
2022/10/10 03:38:03;;;;;;;1.73;0.93;;;7.30;99.90;;;;;;4992666;28;20037;-73
2022/10/10 03:40:30;;;;;;;1.67;0.95;;;7.30;99.90;;;;;;4992030;28;20045;-74
2022/10/10 03:42:56;;;;;;;1.48;0.70;;;7.30;99.90;;;;;;5009768;28;20496;-74
2022/10/10 03:45:23;;;;;;;2.65;1.10;;;7.30;99.90;;;;;;5005378;28;20310;-75
2022/10/10 03:47:50;;;;;;;2.53;0.80;;;7.30;99.90;;;;;;5008970;28;20053;-74
2022/10/10 03:50:16;;;;;;;2.28;0.77;;;7.20;99.90;;;;;;5009003;28;20046;-76
2022/10/10 03:52:42;;;;;;;2.25;0.82;;;7.30;99.90;;;;;;4991402;28;20499;-75
2022/10/10 03:55:09;;;;;;;2.33;1.05;;;7.20;99.90;;;;;;5004621;28;20038;-75
2022/10/10 03:57:35;;;;;;;1.60;0.70;;;7.20;99.90;;;;;;5009258;28;20030;-74
2022/10/10 04:00:02;;;;;;;2.08;0.70;;;7.20;99.90;;;;;;5010243;28;20029;-76
2022/10/10 04:02:31;;;;;;;2.35;0.90;;;7.20;99.90;;;;;;5008270;28;20058;-74
2022/10/10 04:04:57;;;;;;;2.22;0.80;;;7.20;99.90;;;;;;5003532;28;20045;-74
2022/10/10 04:07:23;;;;;;;2.75;0.80;;;7.20;99.90;;;;;;5008792;28;20057;-74
2022/10/10 04:09:49;;;;;;;1.27;0.80;;;7.20;99.90;;;;;;5008750;28;20497;-74
2022/10/10 04:12:16;;;;;;;2.38;0.77;;;7.20;99.90;;;;;;5024520;28;20388;-74
2022/10/10 04:14:42;;;;;;;1.45;0.77;;;7.10;99.90;;;;;;4987331;28;20037;-74
2022/10/10 04:17:08;;;;;;;2.03;0.65;;;7.10;99.90;;;;;;5008870;28;20558;-73
2022/10/10 04:19:35;;;;;;;2.38;0.73;;;7.10;99.90;;;;;;5006117;28;20038;-73
2022/10/10 04:22:01;;;;;;;1.65;0.80;;;7.10;99.90;;;;;;5007178;28;20033;-74
2022/10/10 04:24:27;;;;;;;3.05;1.58;;;7.00;99.90;;;;;;5018500;28;20544;-75
2022/10/10 04:26:54;;;;;;;2.30;1.08;;;7.00;99.90;;;;;;5008148;28;20038;-74
2022/10/10 04:29:20;;;;;;;2.75;0.60;;;7.00;99.90;;;;;;5006750;28;20033;-73
2022/10/10 04:31:46;;;;;;;1.85;0.70;;;7.00;99.90;;;;;;5005943;28;20053;-72
2022/10/10 04:34:13;;;;;;;1.45;0.75;;;7.00;99.90;;;;;;4986297;28;20042;-74
2022/10/10 04:36:40;;;;;;;1.88;0.60;;;6.90;99.90;;;;;;5008143;28;20033;-73
2022/10/10 04:39:07;;;;;;;1.77;0.90;;;6.90;99.90;;;;;;5006111;28;20038;-73
2022/10/10 04:41:33;;;;;;;1.45;0.80;;;6.90;99.90;;;;;;5006847;28;20041;-73
2022/10/10 04:43:59;;;;;;;1.77;0.90;;;6.90;99.90;;;;;;5020911;28;20034;-73
2022/10/10 04:46:26;;;;;;;2.08;1.00;;;6.90;99.90;;;;;;5008790;28;20034;-74
2022/10/10 04:48:52;;;;;;;2.15;0.80;;;6.80;99.90;;;;;;5007958;28;20522;-73
2022/10/10 04:51:18;;;;;;;2.10;0.90;;;6.90;99.90;;;;;;5008223;28;20033;-73
2022/10/10 04:53:44;;;;;;;3.38;1.27;;;6.90;99.90;;;;;;5018553;28;20038;-73
2022/10/10 04:56:11;;;;;;;3.28;1.45;;;6.80;99.90;;;;;;5005878;28;20117;-73
2022/10/10 04:58:37;;;;;;;3.28;1.60;;;6.80;99.90;;;;;;5007782;28;20038;-73
2022/10/10 05:01:03;;;;;;;3.15;1.50;;;6.80;99.90;;;;;;5008059;28;20029;-74
2022/10/10 05:03:29;;;;;;;4.80;3.30;;;6.80;99.90;;;;;;5022355;28;20510;-74
2022/10/10 05:05:56;;;;;;;8.60;6.47;;;6.70;99.90;;;;;;4985825;28;20061;-73
2022/10/10 05:08:22;;;;;;;5.25;2.90;;;6.70;99.90;;;;;;5007323;28;20408;-73
2022/10/10 05:10:50;;;;;;;5.55;3.65;;;6.70;99.90;;;;;;5007559;28;20048;-71
2022/10/10 05:13:17;;;;;;;4.93;2.85;;;6.70;99.90;;;;;;5007003;28;20041;-73
2022/10/10 05:15:43;;;;;;;3.85;2.83;;;6.60;99.90;;;;;;5004181;28;20037;-73
2022/10/10 05:18:10;;;;;;;6.47;2.53;;;6.60;99.90;;;;;;4988777;28;20041;-72
2022/10/10 05:20:36;;;;;;;3.47;1.70;;;6.60;99.90;;;;;;5005596;28;20481;-73
2022/10/10 05:23:02;;;;;;;4.30;1.20;;;6.60;99.90;;;;;;5006426;28;20056;-73
2022/10/10 05:25:29;;;;;;;2.28;1.35;;;6.60;99.90;;;;;;5003267;28;20038;-73
2022/10/10 05:27:55;;;;;;;2.20;1.15;;;6.60;99.90;;;;;;5007965;28;20030;-73
2022/10/10 05:30:21;;;;;;;3.20;1.10;;;6.60;99.90;;;;;;5006009;28;20440;-72
2022/10/10 05:32:47;;;;;;;2.40;1.33;;;6.60;99.90;;;;;;5022711;28;20029;-73
2022/10/10 05:35:14;;;;;;;3.13;1.60;;;6.60;99.90;;;;;;5002965;28;20605;-73
2022/10/10 05:37:40;;;;;;;2.22;1.10;;;6.60;99.90;;;;;;5006070;28;20068;-73
2022/10/10 05:40:07;;;;;;;3.10;1.35;;;6.60;99.90;;;;;;5006153;28;20053;-73
2022/10/10 05:42:33;;;;;;;3.42;1.05;;;6.60;99.90;;;;;;5005777;28;20038;-72
2022/10/10 05:44:59;;;;;;;3.85;1.45;;;6.60;99.90;;;;;;5000264;28;20040;-73
2022/10/10 05:47:25;;;;;;;2.88;1.20;;;6.50;99.90;;;;;;5005307;28;20045;-74
2022/10/10 05:49:52;;;;;;;3.65;2.33;;;6.50;99.90;;;;;;5005580;28;20477;-71
2022/10/10 05:52:18;;;;;;;7.13;4.43;;;6.50;99.90;;;;;;5006637;28;20041;-74
2022/10/10 05:54:44;;;;;;;5.43;3.22;;;6.50;99.90;;;;;;4984951;28;20282;-72
2022/10/10 05:57:10;;;;;;;6.93;3.20;;;6.50;99.90;;;;;;5006202;28;20034;-72
2022/10/10 05:59:37;;;;;;;7.20;3.75;;;6.50;99.90;;;;;;5005762;28;20037;-73
2022/10/10 06:02:03;;;;;;;5.60;3.80;;;6.60;99.90;;;;;;5005924;28;20594;-73
2022/10/10 06:04:29;;;;;;;7.45;2.72;;;6.60;99.90;;;;;;5001580;28;20052;-73
2022/10/10 06:06:55;;;;;;;3.55;1.77;;;6.60;99.90;;;;;;5006346;28;20042;-75
2022/10/10 06:09:22;;;;;;;5.32;3.08;;;6.50;99.90;;;;;;5006183;28;20052;-73
2022/10/10 06:11:48;;;;;;;4.22;2.67;;;6.60;99.90;;;;;;5004004;28;20045;-73
2022/10/10 06:14:14;;;;;;;4.55;2.30;;;6.60;99.90;;;;;;5000685;28;20038;-73
2022/10/10 06:16:42;;;;;;;3.38;2.42;;;6.70;99.90;;;;;;5005683;28;20042;-73
2022/10/10 06:19:08;;;;;;;5.35;2.80;;;6.70;99.90;;;;;;5004560;28;20032;-73
2022/10/10 06:21:34;;;;;;;13.23;6.15;;;6.70;99.90;;;;;;5005585;28;20409;-72
2022/10/10 06:24:01;;;;;;;5.82;4.25;;;6.80;99.90;;;;;;5001713;28;20047;-71
2022/10/10 06:26:27;;;;;;;9.25;5.88;;;6.80;99.90;;;;;;5020678;28;20023;-73
2022/10/10 06:28:53;;;;;;;9.38;6.10;;;6.80;99.90;;;;;;5006033;28;20034;-74
2022/10/10 06:31:19;;;;;;;8.98;5.85;;;6.90;99.90;;;;;;4990701;28;20049;-74
2022/10/10 06:33:46;;;;;;;8.88;5.38;;;7.00;99.90;;;;;;4978602;28;20049;-73
2022/10/10 06:36:14;;;;;;;7.22;4.82;;;7.00;99.90;;;;;;5001326;28;20034;-73
2022/10/10 06:38:42;;;;;;;10.90;4.88;;;7.00;99.90;;;;;;5003644;28;20046;-74
2022/10/10 06:41:09;;;;;;;6.18;3.70;;;7.10;99.90;;;;;;5004832;28;20041;-73
2022/10/10 06:43:36;;;;;;;5.72;3.67;;;7.20;99.90;;;;;;5001889;28;20037;-72
2022/10/10 06:46:03;;;;;;;6.53;5.03;;;7.20;99.90;;;;;;5003852;28;20052;-72
2022/10/10 06:48:30;;;;;;;7.45;5.43;;;7.30;99.90;;;;;;5005836;28;20038;-73
2022/10/10 06:50:59;;;;;;;8.35;6.50;;;7.40;99.90;;;;;;5006856;28;20041;-73
2022/10/10 06:53:26;;;;;;;6.70;6.00;;;7.50;99.90;;;;;;5006400;28;20373;-73
2022/10/10 06:55:54;;;;;;;6.95;4.50;;;7.60;99.90;;;;;;5002522;28;20037;-73
2022/10/10 06:58:26;;;;;;;6.03;4.40;;;7.70;99.90;;;;;;4989589;28;20484;-74
2022/10/10 07:00:54;;;;;;;5.55;4.40;;;7.80;99.90;;;;;;4990282;28;20045;-73
2022/10/10 07:03:20;;;;;;;6.40;4.85;;;7.80;99.90;;;;;;5008528;28;20417;-73
2022/10/10 07:05:52;;;;;;;7.88;5.53;;;7.90;99.90;;;;;;5002256;28;20465;-73
2022/10/10 07:08:19;;;;;;;10.25;7.30;;;8.00;99.90;;;;;;5004579;28;20034;-72
2022/10/10 07:10:46;;;;;;;10.68;7.68;;;8.10;99.90;;;;;;5009010;28;20041;-73
2022/10/10 07:13:13;;;;;;;9.77;5.45;;;8.20;99.90;;;;;;5008859;28;20041;-73
2022/10/10 07:15:40;;;;;;;5.30;3.97;;;8.30;99.90;;;;;;5005735;28;20152;-72
2022/10/10 07:18:06;;;;;;;4.40;2.67;;;8.50;99.90;;;;;;5008894;28;20046;-73
2022/10/10 07:20:34;;;;;;;4.53;2.58;;;8.60;99.90;;;;;;4993198;28;20034;-74
2022/10/10 07:23:00;;;;;;;4.78;2.30;;;8.80;99.90;;;;;;5024910;28;20049;-73
2022/10/10 07:25:26;;;;;;;4.97;2.70;;;8.90;99.90;;;;;;5005412;28;20060;-75
2022/10/10 07:27:53;;;;;;;6.57;3.38;;;9.00;99.90;;;;;;5008871;28;20098;-75
2022/10/10 07:30:19;;;;;;;8.63;3.78;;;9.20;99.90;;;;;;5004837;28;20201;-75
2022/10/10 07:32:46;;;;;;;6.97;3.17;;;9.30;99.90;;;;;;4990050;28;20076;-75
2022/10/10 07:35:12;;;;;;;6.72;2.90;;;9.40;99.90;;;;;;4997806;28;20034;-75
2022/10/10 07:37:38;;;;;;;6.97;3.88;;;9.60;99.90;;;;;;5001813;28;20049;-73
2022/10/10 07:40:07;;;;;;;6.50;3.45;;;9.60;99.90;;;;;;5005178;28;20029;-73
2022/10/10 07:42:34;;;;;;;4.00;2.10;;;9.80;99.90;;;;;;5008363;28;20042;-73
2022/10/10 07:45:00;;;;;;;4.85;1.45;;;9.90;99.90;;;;;;5001695;28;20036;-73
2022/10/10 07:47:27;;;;;;;6.15;2.40;;;9.90;99.90;;;;;;5020803;28;20042;-73
2022/10/10 07:49:53;;;;;;;5.80;2.55;;;10.00;99.90;;;;;;5004514;28;20034;-73
2022/10/10 07:52:19;;;;;;;3.88;1.90;;;10.10;99.90;;;;;;5007180;28;20489;-73
2022/10/10 07:54:45;;;;;;;4.18;2.00;;;10.20;99.90;;;;;;5002012;28;20554;-72
2022/10/10 07:57:12;;;;;;;4.55;2.35;;;10.30;99.90;;;;;;5003378;28;20049;-72
2022/10/10 07:59:39;;;;;;;4.72;2.50;;;10.50;99.90;;;;;;5003638;28;20033;-73
2022/10/10 08:02:06;;;;;;;4.65;2.28;;;10.60;99.90;;;;;;5001671;28;20035;-73
2022/10/10 08:04:34;;;;;;;4.85;3.28;;;10.70;99.90;;;;;;4998679;28;20046;-72
2022/10/10 08:07:00;;;;;;;7.22;4.10;;;10.80;99.90;;;;;;5003270;28;20049;-73
2022/10/10 08:09:26;;;;;;;8.07;3.92;;;11.00;99.90;;;;;;5001595;28;20064;-73
2022/10/10 08:11:52;;;;;;;6.43;3.25;;;11.10;99.90;;;;;;4990100;28;20421;-73
2022/10/10 08:14:19;;;;;;;4.28;2.00;;;11.40;99.90;;;;;;5001725;28;20037;-73
2022/10/10 08:16:45;;;;;;;3.50;1.92;;;11.50;99.90;;;;;;4986915;28;20040;-73
2022/10/10 08:19:11;;;;;;;4.50;3.00;;;11.70;99.90;;;;;;5000768;28;20034;-73
2022/10/10 08:21:38;;;;;;;3.70;2.28;;;11.90;99.90;;;;;;5004065;28;20468;-73
2022/10/10 08:24:04;;;;;;;5.97;2.78;;;12.00;99.90;;;;;;5006127;28;20536;-73
2022/10/10 08:26:30;;;;;;;4.13;2.40;;;12.10;99.90;;;;;;5005474;28;20460;-73
2022/10/10 08:28:57;;;;;;;4.00;2.53;;;12.10;99.90;;;;;;5020084;28;20038;-73
2022/10/10 08:31:23;;;;;;;7.05;2.55;;;12.20;99.90;;;;;;5005811;28;20040;-72
2022/10/10 08:33:51;;;;;;;4.70;3.20;;;12.10;99.90;;;;;;5017418;28;20033;-72
2022/10/10 08:36:20;;;;;;;8.57;4.57;;;12.10;99.90;;;;;;5003026;28;20038;-72
2022/10/10 08:38:47;;;;;;;3.03;2.38;;;12.20;99.90;;;;;;5006344;28;20026;-72
2022/10/10 08:41:39;;;;;;;5.15;4.03;;;12.20;99.90;;;;;;5006480;28;20959;-72
2022/10/10 08:44:31;;;;;;;5.35;3.10;;;12.30;99.90;;;;;;5002328;28;20034;-72
2022/10/10 08:47:02;;;;;;;4.95;2.65;;;12.30;99.90;;;;;;4996666;28;20096;-72
2022/10/10 08:49:49;;;;;;;4.25;1.70;;;12.40;99.90;;;;;;5006221;28;20041;-72
2022/10/10 08:52:35;;;;;;;3.80;2.03;;;12.40;99.90;;;;;;4989704;28;21530;-73
2022/10/10 08:55:06;;;;;;;4.20;2.30;;;12.50;99.90;;;;;;5001356;28;20065;-74
2022/10/10 08:57:46;;;;;;;3.10;2.00;;;12.60;99.90;;;;;;5000782;28;20033;-74
2022/10/10 09:00:19;;;;;;;3.60;2.50;;;12.80;99.90;;;;;;4999835;28;20026;-72
2022/10/10 09:02:48;;;;;;;;;;;12.90;99.90;;;;;;5002122;28;20119;-72
2022/10/10 09:05:18;;;;;;;6.35;3.88;;;13.00;99.90;;;;;;5002729;28;19910;-73
2022/10/10 09:08:00;;;;;;;6.13;3.22;;;13.10;99.90;;;;;;5002030;28;20045;-73
2022/10/10 09:10:37;;;;;;;5.85;3.35;;;13.20;99.90;;;;;;5020248;28;20050;-73
2022/10/10 09:13:33;;;;;;;4.78;2.85;;;13.30;99.90;;;;;;5005885;28;20030;-73
2022/10/10 09:16:05;;;;;;;5.72;2.90;;;13.40;99.90;;;;;;4985655;28;20041;-73
2022/10/10 09:18:51;;;;;;;6.55;2.92;;;13.50;99.90;;;;;;4990425;28;20044;-72
2022/10/10 09:21:32;;;;;;;4.50;2.50;;;13.60;99.90;;;;;;4990466;28;20069;-72
2022/10/10 09:24:09;;;;;;;5.13;3.95;;;13.80;99.90;;;;;;5004345;28;20038;-73
2022/10/10 09:26:57;;;;;;;7.28;3.30;;;13.90;99.90;;;;;;5023194;28;20049;-73
2022/10/10 09:29:30;;;;;;;6.25;3.00;;;14.10;99.90;;;;;;5023210;28;20030;-73
2022/10/10 09:32:03;;;;;;;5.28;3.28;;;14.20;99.90;;;;;;5008338;28;20034;-73
2022/10/10 09:34:40;;;;;;;7.82;4.03;;;14.30;99.90;;;;;;5005353;28;20056;-73
2022/10/10 09:37:18;;;;;;;4.35;2.92;;;14.50;99.90;;;;;;5006297;28;20033;-73
2022/10/10 09:39:51;;;;;;;5.72;3.28;;;14.60;99.90;;;;;;4990596;28;20045;-73
2022/10/10 09:42:24;;;;;;;3.47;2.65;;;14.80;99.90;;;;;;5022162;28;20057;-73
2022/10/10 09:44:51;;;;;;;5.60;2.67;;;15.00;99.90;;;;;;5007608;28;20033;-73
2022/10/10 09:47:17;;;;;;;5.40;3.05;;;15.10;99.90;;;;;;5008041;28;20036;-73
2022/10/10 09:49:44;;;;;;;4.05;2.45;;;15.30;99.90;;;;;;5007899;28;20041;-73
2022/10/10 09:52:24;;;;;;;4.35;2.58;;;15.50;99.90;;;;;;4974163;28;20547;-73
2022/10/10 09:54:59;;;;;;;4.20;2.13;;;15.70;99.90;;;;;;5005538;28;20033;-73
2022/10/10 09:57:32;;;;;;;6.57;3.38;;;15.90;99.90;;;;;;5007343;28;20041;-74
2022/10/10 09:59:58;;;;;;;7.78;4.30;;;16.00;99.90;;;;;;5007520;28;20030;-73
2022/10/10 10:02:27;;;;;;;9.98;3.50;;;16.10;99.90;;;;;;5006655;28;20062;-73
2022/10/10 10:04:54;;;;;;;4.55;3.08;;;16.30;99.90;;;;;;5005814;28;20030;-74
2022/10/10 10:07:33;;;;;;;5.43;2.42;;;16.40;99.90;;;;;;5007804;28;20129;-73
2022/10/10 10:10:03;;;;;;;6.22;3.15;;;16.50;99.90;;;;;;5005253;28;20030;-74
2022/10/10 10:12:41;;;;;;;5.15;2.38;;;16.70;99.90;;;;;;5006040;28;20385;-73
2022/10/10 10:15:22;;;;;;;5.40;2.78;;;16.80;99.90;;;;;;5006554;28;20034;-72
2022/10/10 10:18:08;;;;;;;8.82;3.78;;;17.00;99.90;;;;;;5021418;28;20038;-73
2022/10/10 10:20:40;;;;;;;9.35;4.63;;;17.30;99.90;;;;;;5007374;28;20034;-74
2022/10/10 10:23:30;;;;;;;9.43;4.97;;;17.60;99.90;;;;;;5007449;28;20037;-74
2022/10/10 10:26:05;;;;;;;4.45;2.55;;;18.00;99.90;;;;;;5006056;28;20037;-74
2022/10/10 10:28:40;;;;;;;5.10;2.72;;;18.10;99.90;;;;;;5022894;28;20045;-75
2022/10/10 10:31:15;;;;;;;5.20;2.17;;;18.00;99.90;;;;;;5000288;28;20056;-74
2022/10/10 10:34:17;;;;;;;4.05;1.98;;;17.90;99.90;;;;;;5019794;28;20044;-74
2022/10/10 10:36:54;;;;;;;3.53;1.63;;;17.80;99.90;;;;;;5009719;28;20370;-73
2022/10/10 10:39:50;;;;;;;4.70;1.63;;;17.80;99.90;;;;;;4992721;28;20029;-73
2022/10/10 10:42:50;;;;;;;5.38;3.08;;;17.70;99.90;;;;;;5022430;28;20039;-73
2022/10/10 10:45:28;;;;;;;4.03;3.25;;;17.60;99.90;;;;;;5008648;28;20022;-72
2022/10/10 10:48:13;;;;;;;3.70;2.67;;;17.60;99.90;;;;;;5007376;28;20030;-73
2022/10/10 10:50:47;;;;;;;5.50;3.20;;;17.60;99.90;;;;;;5009184;28;20026;-73
2022/10/10 10:53:28;;;;;;;7.07;2.65;;;17.60;99.90;;;;;;5009784;28;20046;-74
2022/10/10 10:56:01;;;;;;;4.03;2.80;;;17.60;99.90;;;;;;5007616;28;20034;-74
2022/10/10 10:58:45;;;;;;;5.68;2.47;;;17.60;99.90;;;;;;5006929;28;20038;-76
2022/10/10 11:01:20;;;;;;;4.85;2.20;;;17.80;99.90;;;;;;5003845;28;20484;-75
2022/10/10 11:03:49;;;;;;;7.30;3.13;;;18.30;99.90;;;;;;5015732;28;20507;-75
2022/10/10 11:06:40;;;;;;;6.53;2.58;;;18.70;99.90;;;;;;5002171;28;20026;-74
2022/10/10 11:09:18;;;;;;;4.00;1.83;;;18.90;99.90;;;;;;5017875;28;20028;-74
2022/10/10 11:11:55;;;;;;;3.35;1.50;;;18.90;99.90;;;;;;5001833;28;20049;-75
2022/10/10 11:14:46;;;;;;;6.20;3.28;;;18.90;99.90;;;;;;4997961;28;20041;-75
2022/10/10 11:17:48;;;;;;;8.30;4.75;;;19.00;99.90;;;;;;4997267;28;20601;-73
2022/10/10 11:20:26;;;;;;;6.70;2.83;;;19.10;99.90;;;;;;4970161;28;20057;-72
2022/10/10 11:23:05;;;;;;;7.05;3.88;;;19.00;99.90;;;;;;5025615;28;20401;-73
2022/10/10 11:25:38;;;;;;;8.90;3.65;;;19.00;99.90;;;;;;4991596;28;20504;-76
2022/10/10 11:28:17;;;;;;;4.47;2.10;;;19.00;99.90;;;;;;4992684;28;20026;-74
2022/10/10 11:30:57;;;;;;;6.50;4.18;;;19.10;99.90;;;;;;5010429;28;20030;-74
2022/10/10 11:33:29;;;;;;;7.32;2.25;;;19.30;99.90;;;;;;5005698;28;20030;-75
2022/10/10 11:36:04;;;;;;;7.93;4.13;;;19.50;99.90;;;;;;5004494;28;20496;-74
2022/10/10 11:38:55;;;;;;;6.40;2.63;;;19.60;99.90;;;;;;5009208;28;20463;-75
2022/10/10 11:41:25;;;;;;;10.60;3.75;;;19.70;99.90;;;;;;5008152;28;20064;-74
2022/10/10 11:44:08;;;;;;;7.05;2.35;;;19.90;99.90;;;;;;5024247;28;20381;-75
2022/10/10 11:46:54;;;;;;;4.60;2.20;;;20.00;99.90;;;;;;5007847;28;20041;-74
2022/10/10 11:49:30;;;;;;;5.50;2.33;;;20.00;99.90;;;;;;5009439;28;20030;-75
2022/10/10 11:51:57;;;;;;;3.67;2.13;;;19.90;99.90;;;;;;5006694;28;20041;-74
2022/10/10 11:54:35;;;;;;;4.65;1.27;;;19.80;99.90;;;;;;5006274;28;20057;-75
2022/10/10 11:57:08;;;;;;;4.72;2.22;;;19.80;99.90;;;;;;5006646;28;20022;-75
2022/10/10 11:59:50;;;;;;;6.03;2.25;;;19.80;99.90;;;;;;5007781;28;20052;-74
2022/10/10 12:02:35;;;;;;;2.97;1.50;;;19.80;99.90;;;;;;5008182;28;20038;-74
2022/10/10 12:05:06;;;;;;;6.68;2.67;;;19.90;99.90;;;;;;4992728;28;20053;-74
2022/10/10 12:07:58;;;;;;;8.77;2.92;;;20.00;99.90;;;;;;5013809;28;20026;-75
2022/10/10 12:10:32;;;;;;;7.82;3.10;;;20.30;99.90;;;;;;5014251;28;20052;-75
2022/10/10 12:13:11;;;;;;;7.20;2.60;;;21.00;99.90;;;;;;5011190;28;20030;-74
2022/10/10 12:15:38;;;;;;;4.82;1.95;;;21.40;99.90;;;;;;4975018;28;20046;-75
2022/10/10 12:18:04;;;;;;;6.47;1.88;;;22.00;99.90;;;;;;5018210;28;20029;-75
2022/10/10 12:20:35;;;;;;;5.35;2.30;;;22.80;99.90;;;;;;5012411;28;20480;-75
2022/10/10 12:23:13;;;;;;;5.50;3.35;;;23.70;99.90;;;;;;5016932;28;20026;-76
2022/10/10 12:25:45;;;;;;;5.15;2.42;;;24.40;98.60;;;;;;5010481;28;20045;-74
2022/10/10 12:28:14;;;;;;;5.18;2.00;;;24.70;97.40;;;;;;5011843;28;20372;-75
2022/10/10 12:31:06;;;;;;;5.10;1.48;;;24.20;96.90;;;;;;4983074;28;20029;-74
2022/10/10 12:33:32;;;;;;;6.00;2.17;;;23.50;97.10;;;;;;4988833;28;20468;-75
2022/10/10 12:36:17;;;;;;;8.68;3.15;;;22.90;97.40;;;;;;5005365;28;20044;-75
2022/10/10 12:39:02;;;;;;;6.75;2.33;;;22.30;97.90;;;;;;4994212;28;20049;-74
2022/10/10 12:41:47;;;;;;;3.53;1.45;;;21.70;98.40;;;;;;4978756;28;20034;-75
2022/10/10 12:44:34;;;;;;;7.47;2.72;;;21.10;99.00;;;;;;5003279;28;20033;-74
2022/10/10 12:47:12;;;;;;;3.28;1.35;;;20.70;99.40;;;;;;5001662;28;20037;-74
2022/10/10 12:49:57;;;;;;;10.80;2.00;;;20.30;99.90;;;;;;4993231;28;20034;-76
2022/10/10 12:52:35;;;;;;;5.38;2.25;;;20.00;99.90;;;;;;4997932;28;20037;-75
2022/10/10 12:55:08;;;;;;;4.50;1.45;;;19.70;99.90;;;;;;4993414;28;20046;-75
2022/10/10 12:57:41;;;;;;;2.83;1.33;;;19.40;99.90;;;;;;5012508;28;20045;-74
2022/10/10 13:00:34;;;;;;;5.18;1.23;;;19.20;99.90;;;;;;4998971;28;20056;-75
2022/10/10 13:03:03;;;;;;;2.58;1.15;;;19.10;99.90;;;;;;5006684;28;20062;-75
2022/10/10 13:05:33;;;;;;;3.45;1.08;;;18.90;99.90;;;;;;5005954;28;20037;-75
2022/10/10 13:08:06;;;;;;;3.72;1.30;;;18.80;99.90;;;;;;5007709;28;20033;-75
2022/10/10 13:10:32;;;;;;;5.50;2.50;;;18.60;99.90;;;;;;5007490;28;20041;-74
2022/10/10 13:13:13;;;;;;;5.93;1.80;;;18.40;99.90;;;;;;5006826;28;20508;-74
2022/10/10 13:15:54;;;;;;;5.55;1.63;;;18.30;99.90;;;;;;4988753;28;20046;-74
2022/10/10 13:18:41;;;;;;;7.18;1.98;;;18.10;99.90;;;;;;5008043;28;20030;-74